createdAt,value
2023-03-06T00:02:03.620Z,4.39
2023-03-06T00:04:25.334Z,4.35
2023-03-06T00:06:46.934Z,4.33
2023-03-06T00:09:09.803Z,4.31
2023-03-06T00:11:31.434Z,4.31
2023-03-06T00:13:53.164Z,4.31
2023-03-06T00:16:15.007Z,4.33
2023-03-06T00:18:36.577Z,4.33
2023-03-06T00:20:58.227Z,4.29
2023-03-06T00:23:19.890Z,4.27
2023-03-06T00:25:46.043Z,4.23
2023-03-06T00:28:07.666Z,4.16
2023-03-06T00:30:29.482Z,4.15
2023-03-06T00:32:53.438Z,4.15
2023-03-06T00:35:16.520Z,4.13
2023-03-06T00:37:39.746Z,4.13
2023-03-06T00:40:01.685Z,4.09
2023-03-06T00:42:23.288Z,4.08
2023-03-06T00:44:47.248Z,4.05
2023-03-06T00:47:08.982Z,4.03
2023-03-06T00:49:30.582Z,4.03
2023-03-06T00:51:52.350Z,4.01
2023-03-06T00:54:13.944Z,3.98
2023-03-06T00:56:35.567Z,3.94
2023-03-06T00:58:57.224Z,3.90
2023-03-06T01:01:20.373Z,3.86
2023-03-06T01:03:41.994Z,3.84
2023-03-06T01:06:03.872Z,3.79
2023-03-06T01:08:25.548Z,3.77
2023-03-06T01:10:50.892Z,3.78
2023-03-06T01:13:12.504Z,3.79
2023-03-06T01:15:34.264Z,3.76
2023-03-06T01:17:55.937Z,3.78
2023-03-06T01:20:18.415Z,3.77
2023-03-06T01:22:40.053Z,3.74
2023-03-06T01:25:01.773Z,3.75
2023-03-06T01:27:23.373Z,3.74
2023-03-06T01:29:44.985Z,3.73
2023-03-06T01:32:07.136Z,3.73
2023-03-06T01:34:28.791Z,3.72
2023-03-06T01:36:50.479Z,3.74
2023-03-06T01:39:12.221Z,3.72
2023-03-06T01:41:33.911Z,3.72
2023-03-06T01:43:56.241Z,3.69
2023-03-06T01:46:28.746Z,3.68
2023-03-06T01:49:05.545Z,3.64
2023-03-06T01:51:35.439Z,3.60
2023-03-06T01:54:05.155Z,3.58
2023-03-06T01:56:27.298Z,3.55
2023-03-06T01:58:49.693Z,3.52
2023-03-06T02:01:14.575Z,3.52
2023-03-06T02:03:36.630Z,3.47
2023-03-06T02:06:00.242Z,3.42
2023-03-06T02:08:24.027Z,3.38
2023-03-06T02:11:10.549Z,3.38
2023-03-06T02:13:32.488Z,3.36
2023-03-06T02:15:54.259Z,3.35
2023-03-06T02:18:15.918Z,3.32
2023-03-06T02:20:48.615Z,3.30
2023-03-06T02:23:34.033Z,3.28
2023-03-06T02:25:57.582Z,3.19
2023-03-06T02:28:23.059Z,3.16
2023-03-06T02:30:47.327Z,3.15
2023-03-06T02:33:19.962Z,3.10
2023-03-06T02:35:51.578Z,3.08
2023-03-06T02:38:20.207Z,3.03
2023-03-06T02:40:46.883Z,3.05
2023-03-06T02:43:10.337Z,3.05
2023-03-06T02:45:42.561Z,3.08
2023-03-06T02:48:05.076Z,3.08
2023-03-06T02:50:26.794Z,3.06
2023-03-06T02:52:48.476Z,3.07
2023-03-06T02:55:10.382Z,3.06
2023-03-06T02:57:32.124Z,3.07
2023-03-06T02:59:56.005Z,3.07
2023-03-06T03:02:17.957Z,3.02
2023-03-06T03:04:39.710Z,3.02
2023-03-06T03:07:01.867Z,3.00
2023-03-06T03:09:23.630Z,3.01
2023-03-06T03:11:45.221Z,2.97
2023-03-06T03:14:07.048Z,2.98
2023-03-06T03:16:28.759Z,2.97
2023-03-06T03:18:53.231Z,2.91
2023-03-06T03:21:17.983Z,2.92
2023-03-06T03:23:41.691Z,2.92
2023-03-06T03:26:10.241Z,2.93
2023-03-06T03:28:35.006Z,2.89
2023-03-06T03:31:01.898Z,2.89
2023-03-06T03:33:23.807Z,2.89
2023-03-06T03:35:45.456Z,2.89
2023-03-06T03:38:07.202Z,2.90
2023-03-06T03:40:29.344Z,2.88
2023-03-06T03:42:53.148Z,2.86
2023-03-06T03:45:15.479Z,2.83
2023-03-06T03:47:37.752Z,2.80
2023-03-06T03:50:00.696Z,2.76
2023-03-06T03:52:22.412Z,2.75
2023-03-06T03:54:44.082Z,2.73
2023-03-06T03:57:06.005Z,2.72
2023-03-06T03:59:31.072Z,2.73
2023-03-06T04:02:04.885Z,2.70
2023-03-06T04:04:31.320Z,2.71
2023-03-06T04:06:52.973Z,2.69
2023-03-06T04:09:14.969Z,2.67
2023-03-06T04:11:37.069Z,2.65
2023-03-06T04:13:58.752Z,2.66
2023-03-06T04:16:20.831Z,2.66
2023-03-06T04:18:43.958Z,2.65
2023-03-06T04:21:06.028Z,2.64
2023-03-06T04:23:28.438Z,2.64
2023-03-06T04:25:51.452Z,2.59
2023-03-06T04:28:14.459Z,2.59
2023-03-06T04:30:36.341Z,2.57
2023-03-06T04:32:58.514Z,2.55
2023-03-06T04:35:20.441Z,2.56
2023-03-06T04:37:50.662Z,2.54
2023-03-06T04:40:20.220Z,2.54
2023-03-06T04:42:41.802Z,2.53
2023-03-06T04:45:03.675Z,2.51
2023-03-06T04:47:25.345Z,2.54
2023-03-06T04:49:46.951Z,2.52
2023-03-06T04:52:08.691Z,2.52
2023-03-06T04:54:30.676Z,2.49
2023-03-06T04:56:52.209Z,2.49
2023-03-06T04:59:13.826Z,2.49
2023-03-06T05:01:35.539Z,2.52
2023-03-06T05:03:57.150Z,2.51
2023-03-06T05:06:18.756Z,2.56
2023-03-06T05:08:40.380Z,2.56
2023-03-06T05:11:03.560Z,2.57
2023-03-06T05:13:26.645Z,2.59
2023-03-06T05:15:48.251Z,2.57
2023-03-06T05:18:10.011Z,2.57
2023-03-06T05:20:32.145Z,2.59
2023-03-06T05:22:53.726Z,2.55
2023-03-06T05:25:15.468Z,2.57
2023-03-06T05:27:38.175Z,2.61
2023-03-06T05:29:59.838Z,2.61
2023-03-06T05:32:22.929Z,2.59
2023-03-06T05:34:44.588Z,2.61
2023-03-06T05:37:06.287Z,2.60
2023-03-06T05:39:30.198Z,2.62
2023-03-06T05:41:51.771Z,2.65
2023-03-06T05:44:13.370Z,2.66
2023-03-06T05:46:35.042Z,2.67
2023-03-06T05:48:57.853Z,2.65
2023-03-06T05:51:19.506Z,2.67
2023-03-06T05:53:41.261Z,2.70
2023-03-06T05:56:08.753Z,2.73
2023-03-06T05:58:34.419Z,2.76
2023-03-06T06:00:56.404Z,2.78
2023-03-06T06:03:19.296Z,2.77
2023-03-06T06:05:40.912Z,2.78
2023-03-06T06:08:02.550Z,2.80
2023-03-06T06:10:24.197Z,2.81
2023-03-06T06:12:45.841Z,2.83
2023-03-06T06:15:08.102Z,2.84
2023-03-06T06:17:31.371Z,2.85
2023-03-06T06:19:52.984Z,2.79
2023-03-06T06:22:14.571Z,2.79
2023-03-06T06:24:36.218Z,2.84
2023-03-06T06:27:01.472Z,2.88
2023-03-06T06:29:26.921Z,2.87
2023-03-06T06:31:49.018Z,2.90
2023-03-06T06:34:12.759Z,2.94
2023-03-06T06:36:34.518Z,3.00
2023-03-06T06:38:56.362Z,3.02
2023-03-06T06:44:00.447Z,3.03
2023-03-06T06:47:02.647Z,3.04
2023-03-06T06:49:04.221Z,3.05
2023-03-06T06:51:25.917Z,3.04
2023-03-06T06:53:47.582Z,3.04
2023-03-06T06:56:09.140Z,3.07
2023-03-06T06:58:30.729Z,3.11
2023-03-06T07:00:53.011Z,3.15
2023-03-06T07:03:15.034Z,3.16
2023-03-06T07:05:36.602Z,3.13
2023-03-06T07:07:59.034Z,3.18
2023-03-06T07:10:21.210Z,3.22
2023-03-06T07:12:43.062Z,3.24
2023-03-06T07:15:08.041Z,3.21
2023-03-06T07:17:29.724Z,3.23
2023-03-06T07:19:51.356Z,3.25
2023-03-06T07:22:14.097Z,3.24
2023-03-06T07:24:35.756Z,3.25
2023-03-06T07:26:57.761Z,3.27
2023-03-06T07:29:20.245Z,3.30
2023-03-06T07:31:42.341Z,3.32
2023-03-06T07:34:05.092Z,3.34
2023-03-06T07:36:26.916Z,3.37
2023-03-06T07:38:48.912Z,3.41
2023-03-06T07:41:13.814Z,3.47
2023-03-06T07:43:35.482Z,3.50
2023-03-06T07:46:00.585Z,3.54
2023-03-06T07:48:22.298Z,3.57
2023-03-06T07:50:43.994Z,3.62
2023-03-06T07:53:05.674Z,3.67
2023-03-06T07:55:27.293Z,3.70
2023-03-06T07:57:51.635Z,3.67
2023-03-06T08:00:15.803Z,3.73
2023-03-06T08:02:37.448Z,3.79
2023-03-06T08:04:59.128Z,3.88
2023-03-06T08:07:22.165Z,3.98
2023-03-06T08:09:43.851Z,4.04
2023-03-06T08:12:05.897Z,4.09
2023-03-06T08:14:27.870Z,4.16
2023-03-06T08:16:51.141Z,4.21
2023-03-06T08:19:12.787Z,4.23
2023-03-06T08:21:34.616Z,4.29
2023-03-06T08:23:56.670Z,4.34
2023-03-06T08:26:23.054Z,4.37
2023-03-06T08:28:45.443Z,4.33
2023-03-06T08:31:09.407Z,4.33
2023-03-06T08:33:30.972Z,4.37
2023-03-06T08:35:52.785Z,4.42
2023-03-06T08:38:15.028Z,4.47
2023-03-06T08:40:36.631Z,4.57
2023-03-06T08:42:58.280Z,4.66
2023-03-06T08:45:19.906Z,4.74
2023-03-06T08:47:41.490Z,4.80
2023-03-06T08:50:03.930Z,4.86
2023-03-06T08:52:25.647Z,4.96
2023-03-06T08:54:47.292Z,5.11
2023-03-06T08:57:09.211Z,5.24
2023-03-06T08:59:31.663Z,5.34
2023-03-06T09:01:53.359Z,5.48
2023-03-06T09:04:15.009Z,5.57
2023-03-06T09:06:41.444Z,5.67
2023-03-06T09:09:04.712Z,5.77
2023-03-06T09:11:28.184Z,5.83
2023-03-06T09:13:50.454Z,5.85
2023-03-06T09:16:12.501Z,5.84
2023-03-06T09:18:34.278Z,5.85
2023-03-06T09:20:56.324Z,5.86
2023-03-06T09:23:18.008Z,5.88
2023-03-06T09:25:39.606Z,5.94
2023-03-06T09:28:10.895Z,5.90
2023-03-06T09:30:33.503Z,5.83
2023-03-06T09:32:55.153Z,5.88
2023-03-06T09:35:18.726Z,5.95
2023-03-06T09:37:41.920Z,6.12
2023-03-06T09:40:06.392Z,6.32
2023-03-06T09:42:29.175Z,6.37
2023-03-06T09:45:02.245Z,6.36
2023-03-06T09:47:51.870Z,6.39
2023-03-06T09:50:33.890Z,6.36
2023-03-06T09:53:34.109Z,6.32
2023-03-06T09:56:05.954Z,6.29
2023-03-06T09:58:30.834Z,6.23
2023-03-06T10:01:03.447Z,6.17
2023-03-06T10:03:34.236Z,6.18
2023-03-06T10:06:04.061Z,6.33
2023-03-06T10:09:07.186Z,6.46
2023-03-06T10:11:52.676Z,6.56
2023-03-06T10:14:20.343Z,6.60
2023-03-06T10:16:42.471Z,6.67
2023-03-06T10:19:17.256Z,6.67
2023-03-06T10:21:59.952Z,6.63
2023-03-06T10:24:42.416Z,6.57
2023-03-06T10:27:40.487Z,6.69
2023-03-06T10:30:51.556Z,6.90
2023-03-06T10:33:46.997Z,7.08
2023-03-06T10:36:15.987Z,7.07
2023-03-06T10:38:38.308Z,7.03
2023-03-06T10:41:12.266Z,6.94
2023-03-06T10:43:36.659Z,6.87
2023-03-06T10:45:58.402Z,6.93
2023-03-06T10:48:27.447Z,7.02
2023-03-06T10:50:49.553Z,7.19
2023-03-06T10:53:29.185Z,7.41
2023-03-06T10:55:58.876Z,7.43
2023-03-06T10:58:32.800Z,7.38
2023-03-06T11:01:22.381Z,7.30
2023-03-06T11:03:45.514Z,7.21
2023-03-06T11:06:13.490Z,7.18
2023-03-06T11:08:36.229Z,7.14
2023-03-06T11:11:05.549Z,7.16
2023-03-06T11:13:32.022Z,7.24
2023-03-06T11:16:07.284Z,7.35
2023-03-06T11:18:41.287Z,7.60
2023-03-06T11:21:23.104Z,7.83
2023-03-06T11:23:47.342Z,7.97
2023-03-06T11:26:20.038Z,7.98
2023-03-06T11:28:50.916Z,7.97
2023-03-06T11:31:22.465Z,7.96
2023-03-06T11:33:59.247Z,8.00
2023-03-06T11:37:01.516Z,7.99
2023-03-06T11:39:43.765Z,7.87
2023-03-06T11:42:10.331Z,7.78
2023-03-06T11:45:22.943Z,7.72
2023-03-06T11:47:57.744Z,7.65
2023-03-06T11:50:41.331Z,7.72
2023-03-06T11:53:07.336Z,7.83
2023-03-06T11:55:44.777Z,7.93
2023-03-06T11:58:39.662Z,7.98
2023-03-06T12:01:13.010Z,8.05
2023-03-06T12:04:17.903Z,8.12
2023-03-06T12:06:45.454Z,8.10
2023-03-06T12:09:13.130Z,8.08
2023-03-06T12:11:58.988Z,8.05
2023-03-06T12:14:52.583Z,8.18
2023-03-06T12:17:35.534Z,8.26
2023-03-06T12:20:39.692Z,8.41
2023-03-06T12:23:29.919Z,8.60
2023-03-06T12:26:20.672Z,8.70
2023-03-06T12:29:11.546Z,8.85
2023-03-06T12:31:59.300Z,8.93
2023-03-06T12:34:52.380Z,8.87
2023-03-06T12:38:14.746Z,8.76
2023-03-06T12:41:31.742Z,8.81
2023-03-06T12:44:40.494Z,8.91
2023-03-06T12:47:09.220Z,8.94
2023-03-06T12:49:38.666Z,9.05
2023-03-06T12:52:04.965Z,9.24
2023-03-06T12:54:33.488Z,9.18
2023-03-06T12:56:59.797Z,9.15
2023-03-06T12:59:47.222Z,9.27
2023-03-06T13:02:54.765Z,9.23
2023-03-06T13:06:01.408Z,9.15
2023-03-06T13:09:07.238Z,9.16
2023-03-06T13:12:06.075Z,9.11
2023-03-06T13:14:34.267Z,9.02
2023-03-06T13:17:22.998Z,9.09
2023-03-06T13:19:44.664Z,9.11
2023-03-06T13:22:29.331Z,9.06
2023-03-06T13:25:16.714Z,8.95
2023-03-06T13:27:53.618Z,8.88
2023-03-06T13:30:28.429Z,8.87
2023-03-06T13:32:55.374Z,8.79
2023-03-06T13:35:32.330Z,8.78
2023-03-06T13:37:54.545Z,8.74
2023-03-06T13:40:33.609Z,8.70
2023-03-06T13:43:21.394Z,8.65
2023-03-06T13:45:47.081Z,8.61
2023-03-06T13:48:44.637Z,8.64
2023-03-06T13:51:28.042Z,8.71
2023-03-06T13:54:20.631Z,8.73
2023-03-06T13:57:17.344Z,8.72
2023-03-06T14:00:18.999Z,8.63
2023-03-06T14:03:27.643Z,8.56
2023-03-06T14:05:51.985Z,8.51
2023-03-06T14:08:24.680Z,8.49
2023-03-06T14:10:59.219Z,8.45
2023-03-06T14:13:45.341Z,8.38
2023-03-06T14:16:22.976Z,8.36
2023-03-06T14:18:49.576Z,8.33
2023-03-06T14:21:14.484Z,8.27
2023-03-06T14:23:42.400Z,8.24
2023-03-06T14:26:23.926Z,8.19
2023-03-06T14:29:01.213Z,8.11
2023-03-06T14:31:27.712Z,8.13
2023-03-06T14:34:19.279Z,8.17
2023-03-06T14:36:48.563Z,8.21
2023-03-06T14:39:33.969Z,8.21
2023-03-06T14:42:06.046Z,8.24
2023-03-06T14:44:27.800Z,8.29
2023-03-06T14:46:56.468Z,8.39
2023-03-06T14:49:21.075Z,8.47
2023-03-06T14:51:47.734Z,8.51
2023-03-06T14:54:27.937Z,8.56
2023-03-06T14:56:58.669Z,8.60
2023-03-06T14:59:30.465Z,8.49
2023-03-06T15:02:02.697Z,8.42
2023-03-06T15:04:39.362Z,8.35
2023-03-06T15:07:01.472Z,8.33
2023-03-06T15:09:36.703Z,8.32
2023-03-06T15:12:01.267Z,8.25
2023-03-06T15:14:59.547Z,8.18
2023-03-06T15:17:29.852Z,8.09
2023-03-06T15:19:58.722Z,8.03
2023-03-06T15:22:44.100Z,8.06
2023-03-06T15:25:20.108Z,8.06
2023-03-06T15:27:50.195Z,8.02
2023-03-06T15:30:36.879Z,7.95
2023-03-06T15:33:19.711Z,7.95
2023-03-06T15:36:01.996Z,7.91
2023-03-06T15:38:44.281Z,7.88
2023-03-06T15:41:20.730Z,7.89
2023-03-06T15:43:42.441Z,7.82
2023-03-06T15:46:07.646Z,7.71
2023-03-06T15:48:29.361Z,7.59
2023-03-06T15:50:51.095Z,7.47
2023-03-06T15:53:12.733Z,7.27
2023-03-06T15:55:34.418Z,7.09
2023-03-06T15:58:02.052Z,6.95
2023-03-06T16:00:32.404Z,6.82
2023-03-06T16:02:58.536Z,6.72
2023-03-06T16:05:21.682Z,6.69
2023-03-06T16:07:43.829Z,6.63
2023-03-06T16:10:05.777Z,6.60
2023-03-06T16:12:30.733Z,6.57
2023-03-06T16:14:52.498Z,6.53
2023-03-06T16:17:15.580Z,6.57
2023-03-06T16:19:37.186Z,6.58
2023-03-06T16:21:59.232Z,6.58
2023-03-06T16:24:21.027Z,6.58
2023-03-06T16:26:47.112Z,6.55
2023-03-06T16:29:17.766Z,6.52
2023-03-06T16:31:39.424Z,6.53
2023-03-06T16:34:01.065Z,6.56
2023-03-06T16:36:27.156Z,6.57
2023-03-06T16:38:50.292Z,6.56
2023-03-06T16:41:11.931Z,6.55
2023-03-06T16:43:33.658Z,6.54
2023-03-06T16:45:55.644Z,6.53
2023-03-06T16:48:17.387Z,6.51
2023-03-06T16:50:40.545Z,6.53
2023-03-06T16:53:02.273Z,6.51
2023-03-06T16:55:26.860Z,6.50
2023-03-06T16:57:49.096Z,6.49
2023-03-06T17:00:12.115Z,6.50
2023-03-06T17:02:33.977Z,6.50
2023-03-06T17:04:55.839Z,6.53
2023-03-06T17:07:17.443Z,6.51
2023-03-06T17:09:39.085Z,6.49
2023-03-06T17:12:00.701Z,6.48
2023-03-06T17:14:22.316Z,6.45
2023-03-06T17:16:44.001Z,6.43
2023-03-06T17:19:06.887Z,6.49
2023-03-06T17:21:30.150Z,6.50
2023-03-06T17:23:51.844Z,6.50
2023-03-06T17:26:18.820Z,6.50
2023-03-06T17:28:41.891Z,6.48
2023-03-06T17:31:17.226Z,6.48
2023-03-06T17:33:39.044Z,6.45
2023-03-06T17:36:01.172Z,6.37
2023-03-06T17:38:22.872Z,6.32
2023-03-06T17:40:44.554Z,6.27
2023-03-06T17:43:06.139Z,6.24
2023-03-06T17:45:29.496Z,6.23
2023-03-06T17:47:54.414Z,6.14
2023-03-06T17:50:16.303Z,6.09
2023-03-06T17:52:38.968Z,6.08
2023-03-06T17:55:00.705Z,6.13
2023-03-06T17:57:22.309Z,6.12
2023-03-06T17:59:48.461Z,6.06
2023-03-06T18:02:11.260Z,6.00
2023-03-06T18:04:32.857Z,5.95
2023-03-06T18:06:54.666Z,5.92
2023-03-06T18:09:16.400Z,5.92
2023-03-06T18:11:39.170Z,5.88
2023-03-06T18:14:00.741Z,5.86
2023-03-06T18:16:25.960Z,5.82
2023-03-06T18:18:47.794Z,5.77
2023-03-06T18:21:13.553Z,5.74
2023-03-06T18:23:36.535Z,5.69
2023-03-06T18:26:15.673Z,5.66
2023-03-06T18:28:44.655Z,5.64
2023-03-06T18:31:14.165Z,5.61
2023-03-06T18:33:35.826Z,5.60
2023-03-06T18:36:02.865Z,5.64
2023-03-06T18:38:24.494Z,5.62
2023-03-06T18:40:46.211Z,5.61
2023-03-06T18:43:07.967Z,5.62
2023-03-06T18:45:29.688Z,5.60
2023-03-06T18:47:51.350Z,5.56
2023-03-06T18:50:17.421Z,5.55
2023-03-06T18:52:39.137Z,5.53
2023-03-06T18:55:00.836Z,5.53
2023-03-06T18:57:22.577Z,5.51
2023-03-06T18:59:44.347Z,5.48
2023-03-06T19:02:06.773Z,5.49
2023-03-06T19:04:28.538Z,5.48
2023-03-06T19:06:51.372Z,5.48
2023-03-06T19:09:13.007Z,5.48
2023-03-06T19:11:34.979Z,5.49
2023-03-06T19:13:56.666Z,5.46
2023-03-06T19:16:25.590Z,5.47
2023-03-06T19:18:47.590Z,5.44
2023-03-06T19:21:14.893Z,5.47
2023-03-06T19:23:37.058Z,5.47
2023-03-06T19:26:00.424Z,5.46
2023-03-06T19:28:22.124Z,5.45
2023-03-06T19:30:43.726Z,5.41
2023-03-06T19:33:05.331Z,5.37
2023-03-06T19:35:27.600Z,5.39
2023-03-06T19:37:49.605Z,5.42
2023-03-06T19:40:12.756Z,5.43
2023-03-06T19:42:34.440Z,5.43
2023-03-06T19:44:56.121Z,5.43
2023-03-06T19:47:17.747Z,5.45
2023-03-06T19:49:40.613Z,5.44
2023-03-06T19:52:02.371Z,5.43
2023-03-06T19:54:25.515Z,5.41
2023-03-06T19:56:47.204Z,5.41
2023-03-06T19:59:08.840Z,5.44
2023-03-06T20:01:30.862Z,5.47
2023-03-06T20:03:59.055Z,5.44
2023-03-06T20:06:22.282Z,5.36
2023-03-06T20:08:45.900Z,5.33
2023-03-06T20:11:22.278Z,5.30
2023-03-06T20:13:47.302Z,5.25
2023-03-06T20:16:09.289Z,5.22
2023-03-06T20:18:31.070Z,5.17
2023-03-06T20:21:03.835Z,5.18
2023-03-06T20:23:26.306Z,5.15
2023-03-06T20:25:47.952Z,5.11
2023-03-06T20:28:09.570Z,5.06
2023-03-06T20:30:37.724Z,5.03
2023-03-06T20:32:59.981Z,5.00
2023-03-06T20:35:22.726Z,4.98
2023-03-06T20:37:44.546Z,4.92
2023-03-06T20:40:08.348Z,4.91
2023-03-06T20:42:30.157Z,4.87
2023-03-06T20:44:51.791Z,4.84
2023-03-06T20:47:13.514Z,4.80
2023-03-06T20:49:36.552Z,4.80
2023-03-06T20:51:58.247Z,4.80
2023-03-06T20:54:20.078Z,4.78
2023-03-06T20:56:46.903Z,4.76
2023-03-06T20:59:12.155Z,4.75
2023-03-06T21:01:41.557Z,4.69
2023-03-06T21:04:06.786Z,4.65
2023-03-06T21:06:29.343Z,4.65
2023-03-06T21:08:51.316Z,4.64
2023-03-06T21:11:13.569Z,4.64
2023-03-06T21:13:35.288Z,4.62
2023-03-06T21:15:56.985Z,4.61
2023-03-06T21:18:18.917Z,4.61
2023-03-06T21:20:42.248Z,4.62
2023-03-06T21:23:04.322Z,4.60
2023-03-06T21:25:25.970Z,4.62
2023-03-06T21:27:47.796Z,4.65
2023-03-06T21:30:10.512Z,4.66
2023-03-06T21:32:33.147Z,4.68
2023-03-06T21:34:54.846Z,4.68
2023-03-06T21:37:16.523Z,4.73
2023-03-06T21:39:38.533Z,4.75
2023-03-06T21:42:00.281Z,4.74
2023-03-06T21:44:22.482Z,4.79
2023-03-06T21:46:44.090Z,4.80
2023-03-06T21:49:05.836Z,4.83
2023-03-06T21:51:27.560Z,4.86
2023-03-06T21:53:50.266Z,4.87
2023-03-06T21:56:14.460Z,4.89
2023-03-06T21:58:36.562Z,4.90
2023-03-06T22:00:58.483Z,4.94
2023-03-06T22:03:21.108Z,4.97
2023-03-06T22:05:43.291Z,5.00
2023-03-06T22:08:05.018Z,5.02
2023-03-06T22:10:26.710Z,5.02
2023-03-06T22:12:48.492Z,5.04
2023-03-06T22:15:10.506Z,5.06
2023-03-06T22:17:32.864Z,5.09
2023-03-06T22:19:54.590Z,5.09
2023-03-06T22:22:16.260Z,5.09
2023-03-06T22:24:38.042Z,5.11
2023-03-06T22:26:59.778Z,5.15
2023-03-06T22:29:21.440Z,5.21
2023-03-06T22:31:43.187Z,5.24
2023-03-06T22:34:04.949Z,5.25
2023-03-06T22:36:30.633Z,5.26
2023-03-06T22:39:00.119Z,5.29
2023-03-06T22:41:22.501Z,5.31
2023-03-06T22:43:44.288Z,5.31
2023-03-06T22:46:15.474Z,5.30
2023-03-06T22:48:37.414Z,5.29
2023-03-06T22:51:14.606Z,5.29
2023-03-06T22:53:37.540Z,5.31
2023-03-06T22:56:02.054Z,5.36
2023-03-06T22:58:23.604Z,5.35
2023-03-06T23:00:47.332Z,5.36
2023-03-06T23:03:08.964Z,5.35
2023-03-06T23:05:30.639Z,5.35
2023-03-06T23:07:52.286Z,5.40
2023-03-06T23:10:13.898Z,5.43
2023-03-06T23:12:54.265Z,5.43
2023-03-06T23:15:35.773Z,5.43
2023-03-06T23:18:15.801Z,5.46
2023-03-06T23:20:56.238Z,5.46
2023-03-06T23:23:39.048Z,5.47
2023-03-06T23:26:01.451Z,5.48
2023-03-06T23:28:23.137Z,5.47
2023-03-06T23:30:44.962Z,5.48
2023-03-06T23:33:07.066Z,5.50
2023-03-06T23:35:28.791Z,5.49
2023-03-06T23:37:50.446Z,5.53
2023-03-06T23:40:13.711Z,5.52
2023-03-06T23:42:35.416Z,5.52
2023-03-06T23:44:57.066Z,5.53
2023-03-06T23:47:20.053Z,5.53
2023-03-06T23:49:41.778Z,5.50
2023-03-06T23:52:04.391Z,5.48
2023-03-06T23:54:26.064Z,5.47
2023-03-06T23:56:47.671Z,5.47
2023-03-06T23:59:11.374Z,5.43
